Time;durP1;ratioP1;P1;durP2;ratioP2;P2;SDS_P1;SDS_P2;PMS_P1;PMS_P2;Temp;Humidity;BMP_temperature;BMP_pressure;BME280_temperature;BME280_humidity;BME280_pressure;Samples;Min_cycle;Max_cycle;Signal;HPM_P1;HPM_P2
2024/03/12 00:00:15;;;;;;;12.88;9.95;;;11.60;62.30;;;;;;4978235;28;20049;-81
2024/03/12 00:02:59;;;;;;;12.52;9.82;;;11.70;62.60;;;;;;4984752;28;20104;-82
2024/03/12 00:05:44;;;;;;;13.45;10.65;;;11.60;62.30;;;;;;4980274;28;20123;-81
2024/03/12 00:08:29;;;;;;;12.82;10.80;;;11.60;62.40;;;;;;4978303;28;20633;-82
2024/03/12 00:11:14;;;;;;;11.75;10.32;;;11.60;62.40;;;;;;4976835;28;20036;-82
2024/03/12 00:13:58;;;;;;;10.90;9.63;;;11.60;62.40;;;;;;4979730;28;20045;-82
2024/03/12 00:16:43;;;;;;;12.98;10.43;;;11.60;62.50;;;;;;4972967;28;20089;-85
2024/03/12 00:19:28;;;;;;;11.25;10.10;;;11.60;62.50;;;;;;4984889;28;21265;-84
2024/03/12 00:22:12;;;;;;;12.05;10.77;;;11.50;62.30;;;;;;4975822;28;20069;-84
2024/03/12 00:24:57;;;;;;;12.80;10.48;;;11.60;62.50;;;;;;4975954;28;20107;-84
2024/03/12 00:27:48;;;;;;;15.48;11.10;;;11.50;62.30;;;;;;4978146;28;20081;-84
2024/03/12 00:30:33;;;;;;;13.45;9.95;;;11.50;62.30;;;;;;4992554;28;20085;-81
2024/03/12 00:33:18;;;;;;;12.68;10.70;;;11.50;62.30;;;;;;4978218;28;20049;-82
2024/03/12 00:36:03;;;;;;;13.05;10.88;;;11.50;62.30;;;;;;4967499;28;20060;-82
2024/03/12 00:38:47;;;;;;;12.48;10.93;;;11.50;62.40;;;;;;4973366;28;20049;-84
2024/03/12 00:41:32;;;;;;;14.35;11.50;;;11.50;62.40;;;;;;4983955;28;20605;-85
2024/03/12 00:44:17;;;;;;;11.52;10.32;;;11.50;62.40;;;;;;4983706;28;20126;-84
2024/03/12 00:47:01;;;;;;;14.88;11.68;;;11.40;62.20;;;;;;4982408;28;20444;-85
2024/03/12 00:49:46;;;;;;;11.00;9.90;;;11.40;62.20;;;;;;4977667;28;20053;-85
2024/03/12 00:52:31;;;;;;;12.30;10.80;;;11.40;62.30;;;;;;4971790;28;20125;-83
2024/03/12 00:55:16;;;;;;;12.95;10.27;;;11.40;62.30;;;;;;4955829;28;20524;-87
2024/03/12 00:58:00;;;;;;;11.70;10.18;;;11.40;62.30;;;;;;4982788;28;20098;-88
2024/03/12 01:00:45;;;;;;;12.10;10.65;;;11.40;62.30;;;;;;4978498;28;20445;-86
2024/03/12 01:03:29;;;;;;;12.13;10.43;;;11.40;62.30;;;;;;4973485;28;20629;-86
2024/03/12 01:06:14;;;;;;;12.95;11.48;;;11.40;62.30;;;;;;4994461;28;20533;-87
2024/03/12 01:08:58;;;;;;;11.27;10.18;;;11.40;62.40;;;;;;4985561;28;20042;-87
2024/03/12 01:11:44;;;;;;;11.82;10.52;;;11.40;62.40;;;;;;4979445;28;20036;-86
2024/03/12 01:14:28;;;;;;;13.00;10.60;;;11.40;62.40;;;;;;4983402;28;20398;-87
2024/03/12 01:17:14;;;;;;;11.48;10.30;;;11.40;62.40;;;;;;4968111;28;20387;-86
2024/03/12 01:19:58;;;;;;;12.38;11.07;;;11.40;62.50;;;;;;4981471;28;20061;-87
2024/03/12 01:22:44;;;;;;;11.77;10.57;;;11.40;62.50;;;;;;4971322;28;20048;-87
2024/03/12 01:25:30;;;;;;;12.30;10.68;;;11.40;62.50;;;;;;4979186;28;20049;-86
2024/03/12 01:28:14;;;;;;;13.35;10.60;;;11.30;62.30;;;;;;4980608;28;20084;-86
2024/03/12 01:31:00;;;;;;;13.48;11.00;;;11.30;62.40;;;;;;4980038;28;20073;-85
2024/03/12 01:33:44;;;;;;;12.10;10.68;;;11.30;62.40;;;;;;4979652;28;20145;-85
2024/03/12 01:36:35;;;;;;;16.08;12.15;;;11.30;62.40;;;;;;4980848;28;20049;-85
2024/03/12 01:39:28;;;;;;;13.05;10.77;;;11.30;62.40;;;;;;4978547;28;20327;-85
2024/03/12 01:42:13;;;;;;;14.77;11.43;;;11.30;62.50;;;;;;4978797;28;20054;-85
2024/03/12 01:44:57;;;;;;;11.20;9.95;;;11.30;62.50;;;;;;4980108;28;20133;-86
2024/03/12 01:47:43;;;;;;;12.23;10.50;;;11.30;62.50;;;;;;4981389;28;20219;-87
2024/03/12 01:50:28;;;;;;;13.23;11.07;;;11.30;62.50;;;;;;4979595;28;20037;-85
2024/03/12 01:53:13;;;;;;;13.82;10.80;;;11.30;62.60;;;;;;4980365;28;20096;-86
2024/03/12 01:55:57;;;;;;;12.00;10.32;;;11.30;62.60;;;;;;4981180;28;20172;-87
2024/03/12 01:58:44;;;;;;;11.93;10.73;;;11.30;62.60;;;;;;4982940;28;20112;-85
2024/03/12 02:01:28;;;;;;;11.93;10.68;;;11.30;62.60;;;;;;4979584;28;20041;-87
2024/03/12 02:04:14;;;;;;;12.68;11.38;;;11.30;63.20;;;;;;4983624;28;20609;-87
2024/03/12 02:06:58;;;;;;;14.27;11.77;;;11.30;62.70;;;;;;5001081;28;20068;-87
2024/03/12 02:09:43;;;;;;;12.40;11.10;;;11.30;62.70;;;;;;4980909;28;20037;-87
2024/03/12 02:12:28;;;;;;;12.30;10.23;;;11.30;62.70;;;;;;4980089;28;20132;-88
2024/03/12 02:15:13;;;;;;;12.95;10.98;;;11.20;62.60;;;;;;4979807;28;20046;-87
2024/03/12 02:17:58;;;;;;;14.48;11.48;;;11.20;62.60;;;;;;4978474;28;20268;-88
2024/03/12 02:20:43;;;;;;;11.50;10.43;;;11.20;62.60;;;;;;4980496;28;20040;-88
2024/03/12 02:23:36;;;;;;;11.65;10.05;;;11.20;62.70;;;;;;4980079;28;20110;-87
2024/03/12 02:26:21;;;;;;;;;;;11.20;62.70;;;;;;4976155;28;20121;-87
2024/03/12 02:29:07;;;;;;;10.80;9.52;;;11.20;62.60;;;;;;4980631;28;20024;-88
2024/03/12 02:31:52;;;;;;;11.18;10.05;;;11.20;62.60;;;;;;4976695;28;20038;-88
2024/03/12 02:34:38;;;;;;;11.50;10.15;;;11.20;63.10;;;;;;4980788;28;20057;-87
2024/03/12 02:37:23;;;;;;;10.43;9.15;;;11.20;62.60;;;;;;4981818;28;20037;-87
2024/03/12 02:40:12;;;;;;;12.25;10.25;;;11.20;62.70;;;;;;4980022;28;20072;-88
2024/03/12 02:42:59;;;;;;;10.40;9.27;;;11.20;63.30;;;;;;4987173;28;20104;-87
2024/03/12 02:45:44;;;;;;;11.27;9.77;;;11.20;62.80;;;;;;4976710;28;20446;-87
2024/03/12 02:48:29;;;;;;;10.27;8.60;;;11.20;62.80;;;;;;4987375;28;20045;-87
2024/03/12 02:51:14;;;;;;;9.73;7.75;;;11.10;62.60;;;;;;4989140;28;20081;-86
2024/03/12 02:53:59;;;;;;;9.68;8.40;;;11.10;62.60;;;;;;4990818;28;20178;-89
2024/03/12 02:56:44;;;;;;;9.70;8.27;;;11.10;62.70;;;;;;4989327;28;20513;-88
2024/03/12 02:59:30;;;;;;;9.35;8.45;;;11.10;62.70;;;;;;4986353;28;20054;-87
2024/03/12 03:02:14;;;;;;;7.63;6.90;;;11.10;62.70;;;;;;4989339;28;20501;-87
2024/03/12 03:04:59;;;;;;;9.30;7.18;;;11.10;62.70;;;;;;4971683;28;20041;-87
2024/03/12 03:07:43;;;;;;;7.97;6.93;;;11.10;62.80;;;;;;4985945;28;20036;-87
2024/03/12 03:10:28;;;;;;;8.10;7.00;;;11.10;62.80;;;;;;4984839;28;20041;-87
2024/03/12 03:13:13;;;;;;;10.98;7.13;;;11.10;62.80;;;;;;4989088;28;20104;-87
2024/03/12 03:15:57;;;;;;;8.75;7.20;;;11.10;62.80;;;;;;4988955;28;20061;-86
2024/03/12 03:18:42;;;;;;;7.07;6.32;;;11.10;62.80;;;;;;4983498;28;20118;-87
2024/03/12 03:21:26;;;;;;;8.50;6.55;;;11.10;62.90;;;;;;4986021;28;20054;-86
2024/03/12 03:24:11;;;;;;;8.52;6.68;;;11.10;62.90;;;;;;4983653;28;20041;-86
2024/03/12 03:26:57;;;;;;;8.20;6.38;;;11.00;62.70;;;;;;4997394;28;20041;-86
2024/03/12 03:29:42;;;;;;;6.72;5.90;;;11.00;62.70;;;;;;4979698;28;20097;-86
2024/03/12 03:32:28;;;;;;;8.25;5.50;;;11.00;62.70;;;;;;4983430;28;20088;-87
2024/03/12 03:35:13;;;;;;;7.00;5.40;;;11.10;62.90;;;;;;4988720;28;20033;-88
2024/03/12 03:38:00;;;;;;;6.43;5.75;;;11.00;62.80;;;;;;5004002;28;20406;-87
2024/03/12 03:40:46;;;;;;;5.47;4.97;;;11.00;62.80;;;;;;4983859;28;20573;-88
2024/03/12 03:43:30;;;;;;;6.28;5.30;;;11.00;62.80;;;;;;4983797;28;20093;-88
2024/03/12 03:46:15;;;;;;;7.03;6.05;;;11.00;62.80;;;;;;4985367;28;20040;-88
2024/03/12 03:48:59;;;;;;;6.88;4.97;;;11.00;62.90;;;;;;4989015;28;20041;-88
2024/03/12 03:51:44;;;;;;;5.30;4.50;;;11.00;62.90;;;;;;4983677;28;20069;-88
2024/03/12 03:54:28;;;;;;;8.52;5.20;;;11.00;62.90;;;;;;4977954;28;20061;-89
2024/03/12 03:57:13;;;;;;;6.03;4.88;;;11.00;62.90;;;;;;4986319;28;20038;-86
2024/03/12 03:59:58;;;;;;;5.90;5.18;;;11.00;63.50;;;;;;4980726;28;20089;-86
2024/03/12 04:02:44;;;;;;;5.35;4.72;;;11.00;63.00;;;;;;4991120;28;20053;-87
2024/03/12 04:05:28;;;;;;;4.97;4.47;;;11.00;63.00;;;;;;4989011;28;20306;-86
2024/03/12 04:08:14;;;;;;;5.28;4.28;;;11.00;63.00;;;;;;4983833;28;20076;-88
2024/03/12 04:10:58;;;;;;;5.40;4.20;;;11.00;63.10;;;;;;4986783;28;20041;-86
2024/03/12 04:13:43;;;;;;;4.90;4.18;;;11.00;63.10;;;;;;4981519;28;20398;-86
2024/03/12 04:16:30;;;;;;;4.40;3.95;;;11.00;63.10;;;;;;4975652;28;20038;-88
2024/03/12 04:19:14;;;;;;;4.45;4.05;;;11.10;63.40;;;;;;4987264;28;20038;-88
2024/03/12 04:21:59;;;;;;;7.60;4.15;;;11.10;63.30;;;;;;4987119;28;20108;-88
2024/03/12 04:24:44;;;;;;;5.13;3.63;;;11.10;63.40;;;;;;4982102;28;20452;-87
2024/03/12 04:27:29;;;;;;;4.93;3.90;;;11.10;63.40;;;;;;4987907;28;20126;-88
2024/03/12 04:30:14;;;;;;;5.00;3.70;;;11.10;63.50;;;;;;4986002;28;20569;-86
2024/03/12 04:32:58;;;;;;;5.82;3.78;;;11.10;63.50;;;;;;4981663;28;20066;-84
2024/03/12 04:35:44;;;;;;;5.22;3.90;;;11.10;63.50;;;;;;4987452;28;20444;-84
2024/03/12 04:38:32;;;;;;;4.63;3.60;;;11.10;63.50;;;;;;4983387;28;20049;-86
2024/03/12 04:41:20;;;;;;;3.92;3.53;;;11.10;63.50;;;;;;4982657;28;20238;-84
2024/03/12 04:44:04;;;;;;;3.40;3.08;;;11.10;63.50;;;;;;4977145;28;20522;-83
2024/03/12 04:46:52;;;;;;;4.40;3.33;;;11.20;63.80;;;;;;4987639;28;20473;-85
2024/03/12 04:49:39;;;;;;;4.00;2.72;;;11.20;63.80;;;;;;4990578;28;20084;-85
2024/03/12 04:52:23;;;;;;;3.30;2.78;;;11.20;63.80;;;;;;4989179;28;20144;-83
2024/03/12 04:55:08;;;;;;;3.10;2.67;;;11.20;63.80;;;;;;4986006;28;20037;-85
2024/03/12 04:57:53;;;;;;;3.70;3.30;;;11.20;63.80;;;;;;4987116;28;20041;-85
2024/03/12 05:00:37;;;;;;;3.45;2.70;;;11.20;63.90;;;;;;4978424;28;20038;-86
2024/03/12 05:03:22;;;;;;;4.05;2.90;;;11.20;63.90;;;;;;4988640;28;20620;-88
2024/03/12 05:06:07;;;;;;;3.95;3.55;;;11.20;63.90;;;;;;4992527;28;20093;-85
2024/03/12 05:08:53;;;;;;;2.72;2.53;;;11.20;64.00;;;;;;4970698;28;20127;-84
2024/03/12 05:11:38;;;;;;;3.25;2.53;;;11.20;64.00;;;;;;4989679;28;20551;-86
2024/03/12 05:14:23;;;;;;;3.63;2.58;;;11.20;64.00;;;;;;4989859;28;20100;-85
2024/03/12 05:17:07;;;;;;;3.58;2.25;;;11.30;64.20;;;;;;4983089;28;20519;-85
2024/03/12 05:19:52;;;;;;;2.72;2.20;;;11.30;64.20;;;;;;4975118;28;20084;-85
2024/03/12 05:22:36;;;;;;;2.60;2.40;;;11.30;64.20;;;;;;4987927;28;20133;-86
2024/03/12 05:25:27;;;;;;;2.88;2.30;;;11.30;64.30;;;;;;4981356;28;20088;-85
2024/03/12 05:28:12;;;;;;;4.40;2.13;;;11.30;64.30;;;;;;4981651;28;20115;-84
2024/03/12 05:30:57;;;;;;;2.47;2.28;;;11.30;64.30;;;;;;4984917;28;20137;-82
2024/03/12 05:33:42;;;;;;;3.40;2.17;;;11.30;64.40;;;;;;4984608;28;20081;-83
2024/03/12 05:36:30;;;;;;;2.90;1.90;;;11.30;64.40;;;;;;4978598;28;20041;-89
2024/03/12 05:40:13;;;;;;;3.40;1.90;;;11.30;64.40;;;;;;4989769;28;20049;-87
2024/03/12 05:48:26;;;;;;;1.83;1.42;;;11.40;64.70;;;;;;4973838;28;20045;-85
2024/03/12 05:51:12;;;;;;;2.28;1.83;;;11.40;64.80;;;;;;4995379;28;20253;-85
2024/03/12 05:53:58;;;;;;;1.55;1.30;;;11.40;64.80;;;;;;4983855;28;20062;-86
2024/03/12 05:56:42;;;;;;;1.70;1.20;;;11.40;64.80;;;;;;4982159;28;20124;-87
2024/03/12 05:59:27;;;;;;;2.40;1.30;;;11.40;64.90;;;;;;4974341;28;20109;-86
2024/03/12 06:02:13;;;;;;;1.10;1.00;;;11.40;64.90;;;;;;4976987;28;20049;-88
2024/03/12 06:04:57;;;;;;;1.20;1.10;;;11.40;65.00;;;;;;4981237;28;20184;-87
2024/03/12 06:07:49;;;;;;;1.20;1.10;;;11.40;65.00;;;;;;4980241;28;20204;-87
2024/03/12 06:10:34;;;;;;;1.33;1.23;;;11.40;65.00;;;;;;4951769;28;20049;-86
2024/03/12 06:13:22;;;;;;;1.48;1.38;;;11.40;65.00;;;;;;4983893;28;20092;-87
2024/03/12 06:16:07;;;;;;;2.67;1.55;;;11.50;65.30;;;;;;4979319;28;20355;-85
2024/03/12 06:18:52;;;;;;;2.33;1.30;;;11.50;65.30;;;;;;4977952;28;20430;-86
2024/03/12 06:21:36;;;;;;;1.50;1.10;;;11.50;65.40;;;;;;4959488;28;20085;-86
2024/03/12 06:24:21;;;;;;;1.55;1.30;;;11.50;65.40;;;;;;4981504;28;20057;-85
2024/03/12 06:27:07;;;;;;;2.70;1.30;;;11.60;65.60;;;;;;4972557;28;20366;-88
2024/03/12 06:29:52;;;;;;;1.60;0.80;;;11.60;65.70;;;;;;4973784;28;20193;-86
2024/03/12 06:32:37;;;;;;;3.60;0.98;;;11.50;65.50;;;;;;4978495;28;20467;-87
2024/03/12 06:35:21;;;;;;;2.63;0.82;;;11.60;65.80;;;;;;4984437;28;20301;-87
2024/03/12 06:38:06;;;;;;;2.05;0.93;;;11.60;65.80;;;;;;4971465;28;20053;-88
2024/03/12 06:40:51;;;;;;;1.23;0.50;;;11.60;65.90;;;;;;4982029;28;20041;-87
2024/03/12 06:43:40;;;;;;;1.65;0.88;;;11.70;66.10;;;;;;4978009;28;20080;-87
2024/03/12 06:46:25;;;;;;;0.75;0.70;;;11.60;66.00;;;;;;4981293;28;20042;-87
2024/03/12 06:49:12;;;;;;;0.60;0.60;;;11.70;66.20;;;;;;4975709;28;20112;-88
2024/03/12 06:51:56;;;;;;;0.65;0.65;;;11.60;66.00;;;;;;4973245;28;20084;-85
2024/03/12 06:54:44;;;;;;;1.08;0.80;;;11.70;66.30;;;;;;4972114;28;20200;-86
2024/03/12 06:57:29;;;;;;;1.08;0.70;;;11.70;66.30;;;;;;4988054;28;20049;-86
2024/03/12 07:00:26;;;;;;;0.77;0.50;;;11.70;66.30;;;;;;4971060;28;20386;-85
2024/03/12 07:03:10;;;;;;;0.60;0.60;;;11.70;66.40;;;;;;4975353;28;20053;-83
2024/03/12 07:05:56;;;;;;;1.85;0.60;;;11.80;66.50;;;;;;4981039;28;20046;-84
2024/03/12 07:08:43;;;;;;;0.70;0.70;;;11.80;66.60;;;;;;4977863;28;20414;-84
2024/03/12 07:11:28;;;;;;;0.98;0.60;;;11.80;66.60;;;;;;4975471;28;20041;-84
2024/03/12 07:14:23;;;;;;;0.68;0.60;;;11.80;66.60;;;;;;4980010;28;20125;-85
2024/03/12 07:17:12;;;;;;;0.88;0.70;;;11.90;66.80;;;;;;4976889;28;20041;-86
2024/03/12 07:19:58;;;;;;;2.58;0.68;;;11.90;66.90;;;;;;4980602;28;20096;-85
2024/03/12 07:22:42;;;;;;;2.25;0.50;;;11.90;66.90;;;;;;4978882;28;20113;-85
2024/03/12 07:25:27;;;;;;;0.50;0.45;;;11.90;66.90;;;;;;4975167;28;20038;-86
2024/03/12 07:28:12;;;;;;;2.25;0.60;;;11.90;67.00;;;;;;4990711;28;20084;-86
2024/03/12 07:30:57;;;;;;;0.73;0.47;;;11.90;67.00;;;;;;4974949;28;20096;-84
2024/03/12 07:33:43;;;;;;;1.58;1.15;;;12.00;67.20;;;;;;4971808;28;20065;-86
2024/03/12 07:36:32;;;;;;;0.50;0.50;;;12.00;67.30;;;;;;4970242;28;20040;-83
2024/03/12 07:39:31;;;;;;;0.98;0.40;;;11.90;67.10;;;;;;4988634;28;20065;-84
2024/03/12 07:42:19;;;;;;;2.22;1.10;;;12.00;67.30;;;;;;4968184;28;20410;-83
2024/03/12 07:45:05;;;;;;;0.68;0.50;;;12.00;67.30;;;;;;4970269;28;20041;-83
2024/03/12 07:47:50;;;;;;;0.63;0.50;;;12.00;67.30;;;;;;4968298;28;20549;-86
2024/03/12 07:50:36;;;;;;;0.57;0.57;;;12.00;67.40;;;;;;4975845;28;20386;-88
2024/03/12 07:53:22;;;;;;;1.80;0.65;;;12.10;67.60;;;;;;4974585;28;20146;-88
2024/03/12 07:56:06;;;;;;;0.95;0.52;;;12.10;67.60;;;;;;4968960;28;20041;-88
2024/03/12 07:58:51;;;;;;;0.55;0.50;;;12.10;67.60;;;;;;4967340;28;20046;-87
2024/03/12 08:01:36;;;;;;;0.60;0.43;;;12.20;67.80;;;;;;4983483;28;20518;-86
2024/03/12 08:04:22;;;;;;;1.73;0.50;;;12.20;67.80;;;;;;4982930;28;20491;-87
2024/03/12 08:07:06;;;;;;;0.70;0.40;;;12.20;67.80;;;;;;4975264;28;20089;-89
2024/03/12 08:09:51;;;;;;;1.00;0.50;;;12.20;67.90;;;;;;4973232;28;20036;-88
2024/03/12 08:12:38;;;;;;;1.00;0.50;;;12.20;68.20;;;;;;4976033;28;20049;-83
2024/03/12 08:15:23;;;;;;;0.73;0.30;;;12.30;68.10;;;;;;4976686;28;20045;-83
2024/03/12 08:18:09;;;;;;;1.67;0.50;;;12.30;68.10;;;;;;4970119;28;20092;-83
2024/03/12 08:20:53;;;;;;;0.65;0.32;;;12.30;68.10;;;;;;4970996;28;20068;-83
2024/03/12 08:23:39;;;;;;;0.95;0.30;;;12.30;68.10;;;;;;4972403;28;20526;-83
2024/03/12 08:26:26;;;;;;;0.80;0.50;;;12.40;68.50;;;;;;4976269;28;20712;-82
2024/03/12 08:29:12;;;;;;;1.52;0.35;;;12.40;68.60;;;;;;4969455;28;20041;-81
2024/03/12 08:31:56;;;;;;;0.98;0.50;;;12.40;68.60;;;;;;4966649;28;20037;-82
2024/03/12 08:34:41;;;;;;;1.77;0.50;;;12.50;68.80;;;;;;4972704;28;20069;-82
2024/03/12 08:37:27;;;;;;;0.50;0.40;;;12.50;68.90;;;;;;4971425;28;20402;-83
2024/03/12 08:40:14;;;;;;;0.40;0.40;;;12.60;69.10;;;;;;4969599;28;20052;-83
2024/03/12 08:42:58;;;;;;;0.90;0.50;;;12.60;69.10;;;;;;4972078;28;20053;-84
2024/03/12 08:45:44;;;;;;;0.68;0.50;;;12.60;69.20;;;;;;4958914;28;20450;-82
2024/03/12 08:48:29;;;;;;;0.75;0.50;;;12.70;69.40;;;;;;4970848;28;20058;-82
2024/03/12 08:51:13;;;;;;;2.22;0.52;;;12.70;69.40;;;;;;4971126;28;20513;-81
2024/03/12 08:53:58;;;;;;;0.45;0.38;;;12.70;69.40;;;;;;4970621;28;20053;-82
2024/03/12 08:56:43;;;;;;;1.65;0.50;;;12.80;69.60;;;;;;4973383;28;20041;-83
2024/03/12 08:59:29;;;;;;;2.92;0.50;;;12.80;69.60;;;;;;4967199;28;20108;-85
2024/03/12 09:02:14;;;;;;;1.30;0.70;;;12.80;69.70;;;;;;4973995;28;20061;-84
2024/03/12 09:04:59;;;;;;;7.97;1.30;;;12.90;69.80;;;;;;4967995;28;20589;-79
2024/03/12 09:07:45;;;;;;;2.08;0.50;;;12.90;69.80;;;;;;4974264;28;20073;-79
2024/03/12 09:10:30;;;;;;;1.65;0.40;;;13.00;70.00;;;;;;4983958;28;20533;-81
2024/03/12 09:13:16;;;;;;;2.58;0.50;;;13.00;70.10;;;;;;4973211;28;20169;-80
2024/03/12 09:16:01;;;;;;;1.23;0.50;;;13.10;70.20;;;;;;4967381;28;20044;-80
2024/03/12 09:18:47;;;;;;;2.20;0.40;;;13.10;70.20;;;;;;4965014;28;20267;-81
2024/03/12 09:21:33;;;;;;;2.70;0.70;;;13.20;70.40;;;;;;4972682;28;20048;-81
2024/03/12 09:24:18;;;;;;;2.08;0.45;;;13.30;70.60;;;;;;4972859;28;20153;-82
2024/03/12 09:27:04;;;;;;;0.95;0.40;;;13.30;70.60;;;;;;4956597;28;20446;-84
2024/03/12 09:29:48;;;;;;;2.72;0.50;;;13.40;70.70;;;;;;4969537;28;20057;-82
2024/03/12 09:32:34;;;;;;;1.27;0.50;;;13.40;70.70;;;;;;4953578;28;20050;-81
2024/03/12 09:35:21;;;;;;;2.30;0.32;;;13.50;70.90;;;;;;4972197;28;20053;-83
2024/03/12 09:38:09;;;;;;;1.85;0.40;;;13.50;70.90;;;;;;4978046;28;20210;-84
2024/03/12 09:40:59;;;;;;;2.10;0.50;;;13.60;71.00;;;;;;4978428;28;20046;-82
2024/03/12 09:43:44;;;;;;;5.88;0.47;;;13.70;71.20;;;;;;4974677;28;20065;-82
2024/03/12 09:46:29;;;;;;;2.15;0.30;;;13.80;71.40;;;;;;4980113;28;20065;-81
2024/03/12 09:49:18;;;;;;;0.50;0.40;;;13.90;71.50;;;;;;4965354;28;20409;-80
2024/03/12 09:52:05;;;;;;;1.70;0.50;;;14.10;71.60;;;;;;4970662;28;20168;-79
2024/03/12 09:54:51;;;;;;;0.25;0.20;;;14.40;71.60;;;;;;4977444;28;20046;-79
2024/03/12 09:57:44;;;;;;;0.90;0.28;;;14.60;71.30;;;;;;4981394;28;20298;-78
2024/03/12 10:00:29;;;;;;;1.58;0.50;;;14.90;71.30;;;;;;4984862;28;20533;-81
2024/03/12 10:03:17;;;;;;;0.95;0.25;;;15.10;71.10;;;;;;4972575;28;20104;-80
2024/03/12 10:06:02;;;;;;;1.75;0.45;;;15.30;70.90;;;;;;4973269;28;20080;-82
2024/03/12 10:08:47;;;;;;;3.28;0.40;;;15.40;70.50;;;;;;4973066;28;20544;-82
2024/03/12 10:11:33;;;;;;;0.50;0.30;;;15.60;70.50;;;;;;4973057;28;20457;-83
2024/03/12 10:14:17;;;;;;;0.45;0.38;;;15.60;70.20;;;;;;4970755;28;20058;-83
2024/03/12 10:17:13;;;;;;;0.63;0.30;;;15.70;70.40;;;;;;4968523;28;20054;-83
2024/03/12 10:20:07;;;;;;;0.68;0.30;;;15.70;70.40;;;;;;4977621;28;20061;-83
2024/03/12 10:23:09;;;;;;;3.22;1.98;;;15.70;70.30;;;;;;4959812;28;20462;-82
2024/03/12 10:26:18;;;;;;;1.15;0.45;;;15.60;70.20;;;;;;4977997;28;20041;-83
2024/03/12 10:29:13;;;;;;;0.88;0.30;;;15.60;70.30;;;;;;4961678;28;20135;-83
2024/03/12 10:31:58;;;;;;;1.75;0.40;;;15.60;70.40;;;;;;4969794;28;20501;-83
2024/03/12 10:34:43;;;;;;;1.20;0.30;;;15.60;70.40;;;;;;4979088;28;20069;-83
2024/03/12 10:37:29;;;;;;;1.77;0.60;;;15.50;70.30;;;;;;4965850;28;20061;-82
2024/03/12 10:40:14;;;;;;;1.23;0.40;;;15.50;70.30;;;;;;4974098;28;20273;-82
2024/03/12 10:43:01;;;;;;;1.77;0.50;;;15.50;70.30;;;;;;4974025;28;20057;-82
2024/03/12 10:45:49;;;;;;;1.67;0.60;;;15.50;70.30;;;;;;4978173;28;20425;-82
2024/03/12 10:48:36;;;;;;;1.58;0.60;;;15.50;70.30;;;;;;4970664;28;20065;-82
2024/03/12 10:51:21;;;;;;;1.27;0.52;;;15.50;70.30;;;;;;4974838;28;20117;-83
2024/03/12 10:54:13;;;;;;;2.95;0.73;;;15.50;70.20;;;;;;4976130;28;20136;-81
2024/03/12 10:56:58;;;;;;;0.77;0.43;;;15.60;70.30;;;;;;4959663;28;20089;-80
2024/03/12 10:59:43;;;;;;;1.98;0.68;;;15.50;70.20;;;;;;4959226;28;20038;-81
2024/03/12 11:02:28;;;;;;;2.22;0.70;;;15.50;70.10;;;;;;4972265;28;20630;-81
2024/03/12 11:05:13;;;;;;;1.73;0.57;;;15.50;70.10;;;;;;4977259;28;20102;-80
2024/03/12 11:07:59;;;;;;;1.75;0.60;;;15.50;70.10;;;;;;4975448;28;20092;-81
2024/03/12 11:10:47;;;;;;;2.95;0.57;;;15.50;70.20;;;;;;4988016;28;20741;-83
2024/03/12 11:13:34;;;;;;;2.20;0.50;;;15.50;70.20;;;;;;4971760;28;20331;-81
2024/03/12 11:16:20;;;;;;;2.10;1.25;;;15.50;70.20;;;;;;4977121;28;20053;-82
2024/03/12 11:19:23;;;;;;;2.72;0.68;;;15.40;70.00;;;;;;4973001;28;20075;-81
2024/03/12 11:22:16;;;;;;;1.02;0.63;;;15.50;70.10;;;;;;4965356;28;20069;-81
2024/03/12 11:25:04;;;;;;;1.73;0.77;;;15.50;70.10;;;;;;4966483;28;20042;-81
2024/03/12 11:27:48;;;;;;;2.95;0.75;;;15.50;70.00;;;;;;4980593;28;20121;-80
2024/03/12 11:30:33;;;;;;;3.42;0.70;;;15.50;70.00;;;;;;4963119;28;20068;-80
2024/03/12 11:33:37;;;;;;;2.78;1.08;;;15.50;69.90;;;;;;4973770;28;20129;-80
2024/03/12 11:36:31;;;;;;;;;;;15.50;70.20;;;;;;4967224;28;20058;-79
2024/03/12 11:39:29;;;;;;;2.50;0.75;;;15.60;69.90;;;;;;4970212;28;20020;-80
2024/03/12 11:42:15;;;;;;;4.60;0.80;;;15.60;69.80;;;;;;4989081;28;20667;-80
2024/03/12 11:45:00;;;;;;;4.38;0.75;;;15.60;69.80;;;;;;4967636;28;20065;-80
2024/03/12 11:47:55;;;;;;;2.78;1.00;;;15.60;69.80;;;;;;4964898;28;20475;-80
2024/03/12 11:50:42;;;;;;;2.40;0.80;;;15.60;69.80;;;;;;4973787;28;20117;-80
2024/03/12 11:53:29;;;;;;;1.65;0.73;;;15.60;69.70;;;;;;4956965;28;20042;-79
2024/03/12 11:56:18;;;;;;;2.72;0.80;;;15.60;69.70;;;;;;4971650;28;20041;-79
2024/03/12 11:59:05;;;;;;;1.58;0.70;;;15.60;69.70;;;;;;4967192;28;20041;-80
2024/03/12 12:01:51;;;;;;;2.70;1.20;;;15.60;69.60;;;;;;4974926;28;20053;-79
2024/03/12 12:04:36;;;;;;;4.53;1.42;;;15.70;69.70;;;;;;4969350;28;20054;-79
2024/03/12 12:07:25;;;;;;;3.83;1.08;;;15.70;69.70;;;;;;4972405;28;20532;-80
2024/03/12 12:10:10;;;;;;;6.90;1.70;;;15.70;69.60;;;;;;4969656;28;20522;-80
2024/03/12 12:12:55;;;;;;;3.65;1.13;;;15.70;69.60;;;;;;4978716;28;20528;-80
2024/03/12 12:15:41;;;;;;;3.58;1.45;;;15.70;69.60;;;;;;4975817;28;20779;-80
2024/03/12 12:18:25;;;;;;;2.65;1.85;;;15.70;69.50;;;;;;4972314;28;20085;-80
2024/03/12 12:21:14;;;;;;;5.30;1.10;;;15.70;69.50;;;;;;4975425;28;20115;-84
2024/03/12 12:24:00;;;;;;;2.17;0.75;;;15.70;69.50;;;;;;4980209;28;20128;-82
2024/03/12 12:26:47;;;;;;;2.55;0.70;;;15.80;69.60;;;;;;4962892;28;20114;-82
2024/03/12 12:29:33;;;;;;;5.60;0.70;;;15.90;69.50;;;;;;4975490;28;20612;-82
2024/03/12 12:32:20;;;;;;;3.75;1.80;;;16.00;69.30;;;;;;4971068;28;20046;-83
2024/03/12 12:35:10;;;;;;;3.83;1.25;;;16.20;69.30;;;;;;4974508;28;20092;-82
2024/03/12 12:37:55;;;;;;;3.67;1.10;;;16.30;69.60;;;;;;4977268;28;20240;-81
2024/03/12 12:40:40;;;;;;;4.05;1.05;;;16.50;69.00;;;;;;4972583;28;20048;-81
2024/03/12 12:43:26;;;;;;;2.15;1.33;;;16.60;68.80;;;;;;4971592;28;20085;-81
2024/03/12 12:46:25;;;;;;;3.35;0.95;;;16.70;68.60;;;;;;4974728;28;20049;-82
2024/03/12 12:49:13;;;;;;;3.00;0.55;;;16.80;68.40;;;;;;4972169;28;20108;-82
2024/03/12 12:51:58;;;;;;;3.13;0.90;;;16.80;68.00;;;;;;4970746;28;20398;-81
2024/03/12 12:54:45;;;;;;;2.70;0.98;;;16.90;67.90;;;;;;4969625;28;20165;-80
2024/03/12 12:57:34;;;;;;;3.42;1.20;;;17.00;67.80;;;;;;4968613;28;20069;-81
2024/03/12 13:00:23;;;;;;;2.25;0.85;;;17.10;67.70;;;;;;4967996;28;20045;-80
2024/03/12 13:03:18;;;;;;;2.28;0.80;;;17.20;67.50;;;;;;4969249;28;20058;-81
2024/03/12 13:06:21;;;;;;;4.32;0.70;;;17.30;67.30;;;;;;4963139;28;20453;-81
2024/03/12 13:09:10;;;;;;;1.45;0.47;;;17.40;66.90;;;;;;4977923;28;20045;-82
2024/03/12 13:11:56;;;;;;;2.88;0.82;;;17.50;66.90;;;;;;4979790;28;20045;-80
2024/03/12 13:14:43;;;;;;;4.00;1.05;;;17.60;66.70;;;;;;4980025;28;20049;-80
2024/03/12 13:17:29;;;;;;;4.22;2.42;;;17.70;66.50;;;;;;4981757;28;20077;-81
2024/03/12 13:20:14;;;;;;;3.05;0.90;;;17.70;66.30;;;;;;4968568;28;20037;-81
2024/03/12 13:22:58;;;;;;;2.10;0.80;;;17.70;66.00;;;;;;4984134;28;20134;-82
2024/03/12 13:25:45;;;;;;;2.25;0.70;;;17.80;66.00;;;;;;4976237;28;20520;-80
2024/03/12 13:28:30;;;;;;;1.77;0.70;;;17.80;65.70;;;;;;4976012;28;20045;-81
2024/03/12 13:31:15;;;;;;;3.00;0.80;;;17.90;65.80;;;;;;4974394;28;20042;-80
2024/03/12 13:34:00;;;;;;;3.60;0.95;;;17.90;65.50;;;;;;4973898;28;20116;-80
2024/03/12 13:36:45;;;;;;;1.75;0.68;;;17.90;65.30;;;;;;4967689;28;20092;-80
2024/03/12 13:39:29;;;;;;;1.40;0.80;;;18.00;65.30;;;;;;4971254;28;20098;-80
2024/03/12 13:42:16;;;;;;;1.77;0.63;;;18.00;65.10;;;;;;4970851;28;20544;-80
2024/03/12 13:45:01;;;;;;;4.47;0.80;;;18.00;64.90;;;;;;4978543;28;20396;-80
2024/03/12 13:47:46;;;;;;;3.40;1.63;;;18.00;64.70;;;;;;4966988;28;20041;-79
2024/03/12 13:50:31;;;;;;;2.63;0.95;;;18.10;64.60;;;;;;4975458;28;20042;-81
2024/03/12 13:53:16;;;;;;;4.28;1.23;;;18.10;64.50;;;;;;4973760;28;20076;-80
2024/03/12 13:56:01;;;;;;;2.92;0.95;;;18.10;64.20;;;;;;4966103;28;20065;-80
2024/03/12 13:58:47;;;;;;;3.75;1.02;;;18.20;64.30;;;;;;4964459;28;20053;-79
2024/03/12 14:01:32;;;;;;;3.65;1.08;;;18.20;64.20;;;;;;4978082;28;20633;-80
2024/03/12 14:04:17;;;;;;;2.38;1.17;;;18.30;64.80;;;;;;4974478;28;20056;-80
2024/03/12 14:07:02;;;;;;;2.85;0.60;;;18.30;64.10;;;;;;4965147;28;20046;-79
2024/03/12 14:09:46;;;;;;;2.67;0.60;;;18.30;64.00;;;;;;4975211;28;20041;-78
2024/03/12 14:12:31;;;;;;;1.75;0.95;;;18.30;63.90;;;;;;4978430;28;20073;-80
2024/03/12 14:15:16;;;;;;;3.30;1.63;;;18.30;63.90;;;;;;4957891;28;20475;-79
2024/03/12 14:18:00;;;;;;;3.17;1.17;;;18.30;64.00;;;;;;4978084;28;20438;-80
2024/03/12 14:20:45;;;;;;;2.17;0.90;;;18.20;64.00;;;;;;4975666;28;20589;-80
2024/03/12 14:23:30;;;;;;;5.03;1.30;;;18.10;64.00;;;;;;4970012;28;20061;-80
2024/03/12 14:26:17;;;;;;;2.10;0.90;;;18.00;64.00;;;;;;4968294;28;20439;-79